createdAt,value
2022-12-31T00:00:35.355Z,564.43
2022-12-31T00:01:35.181Z,567.81
2022-12-31T00:02:35.342Z,573.69
2022-12-31T00:03:35.181Z,582.24
2022-12-31T00:04:35.118Z,580.71
2022-12-31T00:05:35.140Z,582.75
2022-12-31T00:06:35.106Z,583.26
2022-12-31T00:08:19.052Z,249.97
2022-12-31T00:09:20.052Z,362.52
2022-12-31T00:10:20.075Z,437.93
2022-12-31T00:11:20.019Z,489.92
2022-12-31T00:12:19.999Z,527.67
2022-12-31T00:13:20.028Z,540.11
2022-12-31T00:14:20.001Z,558.73
2022-12-31T00:15:19.982Z,566.84
2022-12-31T00:16:20.017Z,578.69
2022-12-31T00:17:19.962Z,585.83
2022-12-31T00:18:19.930Z,591.57
2022-12-31T00:19:19.908Z,586.87
2022-12-31T00:20:19.906Z,596.89
2022-12-31T00:21:19.912Z,600.66
2022-12-31T00:22:19.894Z,599.04
2022-12-31T00:23:19.877Z,598.50
2022-12-31T00:24:19.855Z,595.28
2022-12-31T00:25:19.861Z,592.63
2022-12-31T00:26:19.809Z,595.82
2022-12-31T00:27:19.818Z,596.35
2022-12-31T00:28:19.818Z,591.57
2022-12-31T00:29:19.790Z,581.22
2022-12-31T00:30:19.777Z,575.18
2022-12-31T00:31:19.852Z,579.70
2022-12-31T00:32:19.740Z,579.19
2022-12-31T00:33:19.737Z,577.18
2022-12-31T00:34:19.713Z,587.91
2022-12-31T00:35:19.699Z,589.47
2022-12-31T00:36:19.932Z,594.22
2022-12-31T00:37:19.660Z,601.21
2022-12-31T00:38:19.682Z,597.96
2022-12-31T00:39:19.653Z,605.59
2022-12-31T00:40:19.630Z,605.04
2022-12-31T00:41:19.628Z,608.92
2022-12-31T00:42:19.635Z,611.73
2022-12-31T00:43:19.603Z,619.72
2022-12-31T00:44:19.684Z,618.56
2022-12-31T00:45:19.569Z,624.96
2022-12-31T00:46:19.597Z,624.96
2022-12-31T00:47:19.554Z,626.14
2022-12-31T00:48:19.531Z,622.62
2022-12-31T00:49:19.513Z,631.50
2022-12-31T00:50:19.520Z,635.73
2022-12-31T00:51:19.509Z,632.10
2022-12-31T00:52:19.466Z,623.79
2022-12-31T00:53:19.452Z,625.55
2022-12-31T00:54:19.457Z,625.55
2022-12-31T00:55:19.446Z,631.50
2022-12-31T00:56:19.457Z,630.30
2022-12-31T00:57:19.407Z,632.70
2022-12-31T00:58:19.387Z,631.50
2022-12-31T00:59:19.373Z,628.51
2022-12-31T01:00:19.389Z,623.79
2022-12-31T01:01:19.599Z,608.92
2022-12-31T01:02:19.549Z,617.41
2022-12-31T01:03:19.370Z,612.85
2022-12-31T01:04:19.341Z,615.12
2022-12-31T01:05:19.320Z,603.94
2022-12-31T01:06:19.304Z,607.25
2022-12-31T01:07:19.313Z,600.12
2022-12-31T01:08:19.284Z,599.58
2022-12-31T01:09:19.265Z,602.30
2022-12-31T01:10:19.232Z,605.04
2022-12-31T01:11:19.339Z,591.57
2022-12-31T01:12:19.274Z,600.12
2022-12-31T01:13:19.242Z,599.04
2022-12-31T01:14:19.185Z,591.57
2022-12-31T01:15:19.188Z,590.52
2022-12-31T01:16:19.196Z,595.82
2022-12-31T01:17:19.151Z,592.63
2022-12-31T01:18:19.165Z,589.47
2022-12-31T01:19:19.144Z,592.10
2022-12-31T01:20:19.129Z,593.16
2022-12-31T01:21:19.104Z,594.22
2022-12-31T01:22:19.097Z,600.12
2022-12-31T01:23:19.078Z,605.59
2022-12-31T01:24:19.076Z,604.49
2022-12-31T01:25:19.049Z,601.75
2022-12-31T01:26:19.031Z,600.12
2022-12-31T01:27:19.039Z,595.82
2022-12-31T01:28:19.042Z,590.52
2022-12-31T01:29:19.047Z,583.77
2022-12-31T01:30:18.983Z,585.83
2022-12-31T01:31:19.041Z,584.29
2022-12-31T01:32:18.959Z,585.83
2022-12-31T01:33:18.972Z,578.69
2022-12-31T01:34:18.937Z,578.18
2022-12-31T01:35:18.952Z,583.77
2022-12-31T01:36:25.065Z,576.68
2022-12-31T01:37:18.934Z,579.70
2022-12-31T01:38:18.891Z,574.19
2022-12-31T01:39:18.914Z,571.22
2022-12-31T01:40:18.860Z,580.21
2022-12-31T01:41:18.858Z,579.70
2022-12-31T01:42:18.831Z,576.68
2022-12-31T01:43:18.828Z,578.69
2022-12-31T01:44:18.814Z,576.68
2022-12-31T01:45:18.779Z,573.69
2022-12-31T01:46:18.819Z,579.19
2022-12-31T01:47:18.782Z,572.21
2022-12-31T01:48:18.754Z,568.29
2022-12-31T01:49:18.756Z,574.19
2022-12-31T01:50:18.747Z,571.22
2022-12-31T01:51:18.702Z,576.18
2022-12-31T01:52:18.724Z,575.18
2022-12-31T01:53:18.689Z,579.19
2022-12-31T01:54:18.728Z,572.70
2022-12-31T01:55:18.657Z,583.26
2022-12-31T01:56:18.643Z,586.35
2022-12-31T01:57:18.640Z,575.68
2022-12-31T01:58:18.689Z,584.29
2022-12-31T01:59:18.608Z,584.80
2022-12-31T02:00:18.654Z,595.28
2022-12-31T02:01:18.709Z,594.75
2022-12-31T02:02:18.736Z,595.28
2022-12-31T02:03:18.592Z,592.10
2022-12-31T02:04:18.575Z,595.82
2022-12-31T02:05:18.546Z,596.89
2022-12-31T02:06:18.527Z,603.39
2022-12-31T02:07:18.515Z,602.84
2022-12-31T02:08:18.489Z,599.04
2022-12-31T02:09:18.499Z,601.75
2022-12-31T02:10:18.479Z,601.21
2022-12-31T02:11:18.449Z,596.89
2022-12-31T02:12:18.465Z,611.16
2022-12-31T02:13:18.433Z,617.99
2022-12-31T02:14:18.430Z,617.41
2022-12-31T02:15:18.432Z,611.73
2022-12-31T02:16:18.437Z,606.15
2022-12-31T02:17:18.378Z,600.12
2022-12-31T02:18:18.390Z,599.58
2022-12-31T02:19:18.382Z,599.04
2022-12-31T02:20:18.345Z,600.66
2022-12-31T02:21:18.392Z,605.59
2022-12-31T02:22:18.321Z,605.59
2022-12-31T02:23:18.333Z,604.49
2022-12-31T02:24:18.287Z,608.92
2022-12-31T02:25:18.272Z,610.04
2022-12-31T02:26:18.290Z,605.59
2022-12-31T02:27:18.241Z,605.59
2022-12-31T02:28:18.262Z,588.95
2022-12-31T02:29:18.232Z,590.52
2022-12-31T02:30:18.210Z,590.00
2022-12-31T02:31:18.230Z,595.82
2022-12-31T02:32:18.183Z,596.35
2022-12-31T02:33:18.178Z,595.28
2022-12-31T02:34:18.179Z,599.04
2022-12-31T02:35:18.177Z,599.58
2022-12-31T02:36:18.137Z,603.94
2022-12-31T02:37:18.124Z,595.28
2022-12-31T02:38:18.140Z,599.04
2022-12-31T02:39:18.087Z,603.39
2022-12-31T02:40:18.123Z,600.66
2022-12-31T02:41:18.065Z,599.04
2022-12-31T02:42:18.052Z,593.69
2022-12-31T02:43:18.044Z,599.04
2022-12-31T02:44:18.062Z,603.94
2022-12-31T02:45:18.029Z,610.04
2022-12-31T02:46:18.032Z,601.21
2022-12-31T02:47:17.987Z,610.60
2022-12-31T02:48:17.990Z,603.39
2022-12-31T02:49:17.988Z,606.15
2022-12-31T02:50:17.962Z,607.25
2022-12-31T02:51:17.939Z,610.60
2022-12-31T02:52:17.931Z,611.16
2022-12-31T02:53:17.912Z,612.29
2022-12-31T02:54:17.943Z,609.48
2022-12-31T02:55:17.876Z,605.59
2022-12-31T02:56:17.894Z,609.48
2022-12-31T02:57:17.869Z,607.81
2022-12-31T02:58:17.863Z,602.30
2022-12-31T02:59:17.860Z,592.10
2022-12-31T03:00:17.824Z,593.16
2022-12-31T03:01:17.920Z,596.89
2022-12-31T03:02:17.882Z,596.89
2022-12-31T03:03:17.783Z,603.39
2022-12-31T03:04:17.779Z,610.04
2022-12-31T03:05:17.786Z,600.12
2022-12-31T03:06:17.739Z,605.04
2022-12-31T03:07:17.730Z,601.21
2022-12-31T03:08:17.733Z,601.75
2022-12-31T03:09:17.702Z,608.92
2022-12-31T03:10:17.689Z,610.04
2022-12-31T03:11:17.667Z,614.56
2022-12-31T03:12:17.681Z,620.29
2022-12-31T03:13:17.643Z,626.14
2022-12-31T03:14:17.641Z,610.60
2022-12-31T03:15:17.651Z,612.85
2022-12-31T03:16:17.701Z,620.87
2022-12-31T03:17:17.601Z,607.81
2022-12-31T03:18:17.585Z,614.56
2022-12-31T03:19:17.566Z,619.72
2022-12-31T03:20:17.555Z,629.10
2022-12-31T03:21:17.543Z,634.51
2022-12-31T03:22:17.540Z,640.63
2022-12-31T03:23:17.536Z,642.49
2022-12-31T03:24:17.503Z,640.02
2022-12-31T03:25:17.483Z,645.61
2022-12-31T03:26:17.483Z,646.87
2022-12-31T03:27:17.464Z,643.11
2022-12-31T03:28:17.485Z,638.17
2022-12-31T03:29:17.438Z,650.03
2022-12-31T03:30:17.422Z,645.61
2022-12-31T03:31:17.462Z,636.95
2022-12-31T03:32:17.398Z,649.40
2022-12-31T03:33:17.388Z,657.76
2022-12-31T03:34:17.375Z,654.52
2022-12-31T03:35:17.358Z,654.52
2022-12-31T03:36:17.344Z,661.69
2022-12-31T03:37:17.328Z,665.00
2022-12-31T03:38:17.340Z,669.02
2022-12-31T03:39:17.332Z,675.14
2022-12-31T03:40:17.303Z,673.09
2022-12-31T03:41:17.294Z,669.69
2022-12-31T03:42:17.266Z,667.67
2022-12-31T03:43:17.273Z,664.34
2022-12-31T03:44:17.248Z,661.69
2022-12-31T03:45:17.250Z,661.03
2022-12-31T03:46:17.289Z,653.87
2022-12-31T03:47:17.197Z,659.72
2022-12-31T03:48:17.208Z,644.36
2022-12-31T03:49:17.190Z,641.25
2022-12-31T03:50:17.192Z,637.56
2022-12-31T03:51:17.160Z,646.24
2022-12-31T03:52:17.155Z,636.34
2022-12-31T03:53:17.141Z,636.95
2022-12-31T03:54:17.124Z,648.77
2022-12-31T03:55:17.108Z,649.40
2022-12-31T03:56:17.107Z,651.31
2022-12-31T03:57:17.088Z,648.13
2022-12-31T03:58:17.115Z,645.61
2022-12-31T03:59:17.080Z,647.50
2022-12-31T04:00:17.043Z,646.87
2022-12-31T04:01:17.100Z,650.67
2022-12-31T04:02:17.132Z,655.81
2022-12-31T04:03:17.057Z,650.67
2022-12-31T04:04:16.997Z,650.67
2022-12-31T04:05:16.990Z,656.46
2022-12-31T04:06:17.001Z,654.52
2022-12-31T04:07:16.948Z,649.40
2022-12-31T04:08:16.938Z,650.03
2022-12-31T04:09:16.927Z,652.59
2022-12-31T04:10:16.933Z,654.52
2022-12-31T04:11:20.826Z,654.52
2022-12-31T04:12:16.888Z,654.52
2022-12-31T04:13:16.884Z,648.77
2022-12-31T04:14:16.864Z,644.99
2022-12-31T04:15:16.871Z,641.87
2022-12-31T04:16:16.888Z,644.36
2022-12-31T04:17:16.827Z,653.23
2022-12-31T04:18:16.826Z,651.95
2022-12-31T04:19:16.809Z,655.16
2022-12-31T04:20:16.799Z,658.41
2022-12-31T04:21:16.782Z,661.69
2022-12-31T04:22:16.763Z,658.41
2022-12-31T04:23:16.744Z,658.41
2022-12-31T04:24:16.736Z,657.76
2022-12-31T04:25:16.726Z,663.01
2022-12-31T04:26:16.708Z,663.01
2022-12-31T04:27:16.710Z,655.81
2022-12-31T04:28:16.699Z,646.87
2022-12-31T04:29:16.673Z,646.24
2022-12-31T04:30:16.644Z,653.23
2022-12-31T04:31:16.626Z,651.95
2022-12-31T04:32:16.652Z,650.03
2022-12-31T04:33:16.607Z,659.06
2022-12-31T04:34:16.614Z,670.37
2022-12-31T04:35:16.578Z,668.34
2022-12-31T04:36:16.559Z,670.37
2022-12-31T04:37:16.549Z,678.59
2022-12-31T04:38:16.576Z,680.67
2022-12-31T04:39:16.514Z,669.69
2022-12-31T04:40:16.523Z,667.67
2022-12-31T04:41:16.488Z,658.41
2022-12-31T04:42:16.477Z,654.52
2022-12-31T04:43:16.487Z,650.67
2022-12-31T04:44:16.455Z,653.23
2022-12-31T04:45:16.459Z,654.52
2022-12-31T04:46:16.497Z,657.11
2022-12-31T04:47:23.271Z,664.34
2022-12-31T04:48:16.420Z,661.69
2022-12-31T04:49:16.373Z,659.72
2022-12-31T04:50:16.395Z,659.06
2022-12-31T04:51:16.347Z,668.34
2022-12-31T04:52:16.341Z,663.01
2022-12-31T04:53:16.338Z,667.00
2022-12-31T04:54:16.305Z,665.00
2022-12-31T04:55:16.313Z,665.00
2022-12-31T04:56:16.295Z,669.02
2022-12-31T04:57:16.292Z,680.67
2022-12-31T04:58:16.276Z,675.14
2022-12-31T04:59:16.264Z,661.69
2022-12-31T05:00:16.251Z,651.31
2022-12-31T05:01:16.454Z,658.41
2022-12-31T05:02:16.378Z,669.69
2022-12-31T05:03:16.219Z,663.67
2022-12-31T05:04:16.188Z,663.01
2022-12-31T05:05:16.173Z,655.81
2022-12-31T05:06:16.146Z,667.67
2022-12-31T05:07:16.174Z,672.40
2022-12-31T05:08:16.119Z,673.09
2022-12-31T05:09:16.108Z,684.18
2022-12-31T05:10:16.105Z,692.02
2022-12-31T05:11:16.108Z,692.74
2022-12-31T05:12:16.072Z,684.18
2022-12-31T05:13:16.082Z,673.77
2022-12-31T05:14:16.071Z,665.67
2022-12-31T05:15:16.040Z,671.72
2022-12-31T05:16:16.062Z,657.11
2022-12-31T05:17:15.999Z,661.69
2022-12-31T05:18:16.035Z,658.41
2022-12-31T05:19:16.004Z,657.11
2022-12-31T05:20:15.968Z,650.67
2022-12-31T05:21:15.946Z,653.23
2022-12-31T05:22:15.937Z,661.03
2022-12-31T05:23:15.925Z,669.69
2022-12-31T05:24:15.916Z,652.59
2022-12-31T05:25:15.892Z,661.69
2022-12-31T05:26:15.878Z,657.76
2022-12-31T05:27:15.880Z,651.31
2022-12-31T05:28:15.856Z,660.37
2022-12-31T05:29:15.836Z,672.40
2022-12-31T05:30:15.833Z,668.34
2022-12-31T05:31:15.856Z,666.33
2022-12-31T05:32:15.827Z,670.37
2022-12-31T05:33:15.798Z,659.72
2022-12-31T05:34:15.779Z,650.03
2022-12-31T05:35:15.765Z,638.17
2022-12-31T05:36:15.755Z,630.30
2022-12-31T05:37:15.772Z,628.51
2022-12-31T05:38:15.733Z,624.38
2022-12-31T05:39:15.706Z,628.51
2022-12-31T05:40:15.696Z,623.79
2022-12-31T05:41:15.675Z,615.12
2022-12-31T05:42:15.692Z,617.99
2022-12-31T05:43:15.676Z,612.29
2022-12-31T05:44:15.647Z,613.42
2022-12-31T05:45:15.714Z,610.04
2022-12-31T05:46:15.638Z,590.52
2022-12-31T05:47:15.623Z,594.22
2022-12-31T05:48:15.588Z,586.87
2022-12-31T05:49:15.583Z,597.96
2022-12-31T05:50:15.563Z,597.96
2022-12-31T05:51:15.549Z,600.66
2022-12-31T05:52:15.532Z,596.89
2022-12-31T05:53:15.518Z,590.52
2022-12-31T05:54:15.520Z,594.22
2022-12-31T05:55:15.513Z,583.77
2022-12-31T05:56:15.488Z,582.75
2022-12-31T05:57:15.472Z,583.26
2022-12-31T05:58:15.445Z,595.82
2022-12-31T05:59:15.432Z,572.70
2022-12-31T06:00:15.419Z,560.62
2022-12-31T06:01:15.463Z,557.80
2022-12-31T06:02:15.457Z,563.47
2022-12-31T06:03:15.558Z,573.20
2022-12-31T06:04:15.381Z,567.32
2022-12-31T06:05:15.352Z,552.23
2022-12-31T06:06:15.339Z,557.80
2022-12-31T06:07:15.329Z,555.93
2022-12-31T06:08:15.307Z,544.54
2022-12-31T06:09:15.307Z,556.86
2022-12-31T06:10:15.286Z,537.92
2022-12-31T06:11:15.279Z,529.35
2022-12-31T06:12:15.261Z,513.79
2022-12-31T06:13:15.261Z,544.54
2022-12-31T06:14:15.249Z,513.40
2022-12-31T06:15:15.223Z,503.67
2022-12-31T06:16:15.382Z,517.80
2022-12-31T06:17:15.198Z,518.61
2022-12-31T06:18:15.222Z,528.51
2022-12-31T06:19:15.178Z,541.43
2022-12-31T06:20:15.188Z,521.46
2022-12-31T06:21:15.159Z,521.05
2022-12-31T06:22:15.150Z,509.85
2022-12-31T06:23:15.119Z,496.89
2022-12-31T06:24:15.099Z,492.46
2022-12-31T06:25:15.095Z,512.60
2022-12-31T06:26:15.080Z,527.25
2022-12-31T06:27:15.061Z,462.31
2022-12-31T06:28:20.062Z,475.89
2022-12-31T06:29:15.037Z,486.69
2022-12-31T06:30:15.020Z,490.65
2022-12-31T06:31:15.058Z,481.05
2022-12-31T06:32:14.994Z,496.51
2022-12-31T06:33:14.986Z,505.20
2022-12-31T06:34:14.961Z,499.12
2022-12-31T06:35:14.949Z,489.20
2022-12-31T06:36:14.936Z,485.27
2022-12-31T06:37:14.918Z,480.36
2022-12-31T06:38:14.909Z,493.20
2022-12-31T06:39:14.926Z,457.53
2022-12-31T06:40:14.915Z,414.17
2022-12-31T06:41:14.889Z,432.23
2022-12-31T06:42:14.867Z,459.43
2022-12-31T06:43:14.840Z,465.55
2022-12-31T06:44:14.850Z,475.20
2022-12-31T06:45:14.818Z,474.86
2022-12-31T06:46:14.839Z,469.16
2022-12-31T06:47:14.797Z,480.70
2022-12-31T06:48:14.790Z,471.16
2022-12-31T06:49:14.759Z,480.70
2022-12-31T06:50:14.736Z,495.77
2022-12-31T06:51:17.312Z,499.50
2022-12-31T06:52:14.720Z,478.28
2022-12-31T06:53:14.710Z,474.19
2022-12-31T06:54:14.691Z,495.03
2022-12-31T06:55:14.698Z,496.14
2022-12-31T06:56:14.664Z,481.40
2022-12-31T06:57:14.643Z,462.63
2022-12-31T06:58:14.639Z,474.86
2022-12-31T06:59:14.622Z,483.86
2022-12-31T07:00:14.635Z,477.25
2022-12-31T07:01:14.630Z,459.75
2022-12-31T07:02:14.687Z,451.31
2022-12-31T07:03:14.609Z,480.01
2022-12-31T07:04:14.548Z,466.20
2022-12-31T07:05:14.560Z,454.40
2022-12-31T07:06:14.517Z,451.31
2022-12-31T07:07:14.509Z,462.63
2022-12-31T07:08:14.502Z,453.47
2022-12-31T07:09:14.487Z,439.38
2022-12-31T07:10:14.460Z,442.30
2022-12-31T07:11:14.452Z,442.89
2022-12-31T07:12:14.446Z,450.40
2022-12-31T07:13:14.438Z,452.24
2022-12-31T07:14:14.409Z,453.47
2022-12-31T07:15:14.402Z,445.86
2022-12-31T07:16:14.395Z,447.67
2022-12-31T07:17:14.372Z,444.37
2022-12-31T07:18:14.364Z,456.27
2022-12-31T07:19:14.545Z,451.62
2022-12-31T07:20:14.335Z,430.83
2022-12-31T07:21:14.323Z,414.43
2022-12-31T07:22:14.304Z,406.07
2022-12-31T07:23:14.287Z,431.11
2022-12-31T07:24:14.268Z,443.18
2022-12-31T07:25:14.276Z,447.97
2022-12-31T07:26:14.243Z,447.06
2022-12-31T07:27:14.247Z,460.39
2022-12-31T07:28:14.212Z,458.16
2022-12-31T07:29:14.206Z,460.39
2022-12-31T07:30:14.188Z,451.62
2022-12-31T07:31:14.215Z,443.48
2022-12-31T07:32:14.158Z,448.57
2022-12-31T07:33:14.148Z,409.83
2022-12-31T07:34:14.126Z,411.86
2022-12-31T07:35:14.123Z,419.14
2022-12-31T07:36:14.098Z,427.50
2022-12-31T07:37:14.098Z,394.50
2022-12-31T07:38:14.071Z,365.77
2022-12-31T07:39:14.065Z,331.29
2022-12-31T07:40:14.044Z,318.39
2022-12-31T07:41:14.039Z,299.98
2022-12-31T07:42:14.018Z,283.09
2022-12-31T07:43:14.014Z,274.30
2022-12-31T07:44:13.995Z,255.44
2022-12-31T07:45:13.975Z,252.09
2022-12-31T07:46:14.062Z,247.70
2022-12-31T07:47:13.974Z,243.45
2022-12-31T07:48:13.934Z,232.88
2022-12-31T07:49:13.931Z,232.38
2022-12-31T07:50:13.911Z,218.55
2022-12-31T07:51:13.906Z,221.51
2022-12-31T07:52:13.879Z,219.14
2022-12-31T07:53:13.861Z,214.53
2022-12-31T07:54:14.540Z,210.12
2022-12-31T07:55:13.835Z,207.59
2022-12-31T07:56:13.841Z,198.51
2022-12-31T07:57:13.816Z,189.31
2022-12-31T07:58:13.789Z,204.98
2022-12-31T07:59:13.796Z,222.87
2022-12-31T08:00:13.783Z,228.80
2022-12-31T08:01:13.894Z,220.91
2022-12-31T08:02:14.056Z,209.99
2022-12-31T08:03:13.748Z,217.39
2022-12-31T08:04:13.710Z,235.05
2022-12-31T08:05:13.705Z,231.23
2022-12-31T08:06:13.697Z,252.09
2022-12-31T08:07:13.691Z,259.08
2022-12-31T08:08:13.669Z,255.84
2022-12-31T08:09:13.646Z,258.27
2022-12-31T08:10:17.691Z,237.10
2022-12-31T08:11:13.622Z,233.04
2022-12-31T08:12:13.595Z,223.02
2022-12-31T08:13:13.599Z,209.31
2022-12-31T08:14:13.579Z,215.38
2022-12-31T08:15:13.856Z,224.09
2022-12-31T08:16:13.621Z,212.44
2022-12-31T08:17:13.536Z,224.71
2022-12-31T08:18:13.514Z,245.10
2022-12-31T08:19:13.519Z,266.48
2022-12-31T08:20:13.510Z,267.57
2022-12-31T08:21:13.490Z,272.47
2022-12-31T08:22:13.462Z,266.26
2022-12-31T08:23:13.464Z,249.59
2022-12-31T08:24:13.458Z,256.85
2022-12-31T08:25:13.420Z,254.84
2022-12-31T08:26:13.433Z,250.35
2022-12-31T08:27:13.394Z,259.08
2022-12-31T08:28:13.377Z,250.93
2022-12-31T08:29:13.377Z,236.58
2022-12-31T08:30:13.359Z,229.12
2022-12-31T08:31:13.371Z,212.72
2022-12-31T08:32:13.323Z,218.55
2022-12-31T08:33:13.336Z,225.33
2022-12-31T08:34:13.321Z,248.64
2022-12-31T08:35:13.293Z,274.99
2022-12-31T08:36:13.271Z,290.64
2022-12-31T08:37:13.272Z,270.00
2022-12-31T08:38:13.249Z,286.32
2022-12-31T08:39:13.254Z,294.57
2022-12-31T08:40:13.229Z,301.64
2022-12-31T08:41:13.213Z,279.70
2022-12-31T08:42:13.189Z,289.10
2022-12-31T08:43:13.192Z,285.57
2022-12-31T08:44:13.173Z,295.90
2022-12-31T08:45:13.170Z,313.80
2022-12-31T08:46:13.269Z,306.16
2022-12-31T08:47:13.140Z,296.44
2022-12-31T08:48:13.121Z,300.53
2022-12-31T08:49:13.112Z,293.78
2022-12-31T08:50:13.111Z,298.61
2022-12-31T08:51:13.073Z,320.57
2022-12-31T08:52:13.057Z,339.55
2022-12-31T08:53:13.072Z,338.85
2022-12-31T08:54:13.034Z,347.49
2022-12-31T08:55:13.022Z,355.81
2022-12-31T08:56:13.005Z,343.48
2022-12-31T08:57:13.017Z,309.93
2022-12-31T08:58:12.985Z,334.68
2022-12-31T08:59:12.979Z,339.90
2022-12-31T09:00:12.971Z,317.46
2022-12-31T09:01:13.042Z,302.20
2022-12-31T09:02:12.990Z,332.98
2022-12-31T09:03:12.907Z,337.80
2022-12-31T09:04:12.938Z,366.59
2022-12-31T09:05:12.890Z,368.65
2022-12-31T09:06:12.876Z,363.33
2022-12-31T09:07:12.871Z,350.85
2022-12-31T09:08:12.848Z,336.41
2022-12-31T09:09:12.837Z,366.18
2022-12-31T09:10:12.831Z,348.98
2022-12-31T09:11:16.365Z,343.12
2022-12-31T09:12:12.805Z,356.59
2022-12-31T09:13:12.772Z,389.64
2022-12-31T09:14:12.780Z,400.93
2022-12-31T09:15:12.769Z,430.55
2022-12-31T09:16:12.791Z,433.92
2022-12-31T09:17:12.726Z,446.76
2022-12-31T09:18:12.712Z,456.90
2022-12-31T09:19:12.704Z,463.27
2022-12-31T09:20:12.681Z,459.11
2022-12-31T09:21:12.681Z,435.92
2022-12-31T09:22:12.645Z,438.79
2022-12-31T09:23:12.754Z,449.48
2022-12-31T09:24:12.624Z,475.20
2022-12-31T09:25:12.608Z,491.01
2022-12-31T09:26:12.598Z,482.45
2022-12-31T09:27:12.590Z,514.59
2022-12-31T09:28:12.574Z,525.17
2022-12-31T09:29:12.566Z,533.17
2022-12-31T09:30:12.557Z,544.09
2022-12-31T09:31:12.545Z,519.82
2022-12-31T09:32:12.523Z,549.04
2022-12-31T09:33:12.516Z,554.07
2022-12-31T09:34:12.497Z,573.69
2022-12-31T09:35:12.487Z,572.21
2022-12-31T09:36:12.471Z,571.22
2022-12-31T09:37:12.452Z,572.70
2022-12-31T09:38:12.437Z,563.47
2022-12-31T09:39:12.430Z,561.09
2022-12-31T09:40:12.413Z,559.21
2022-12-31T09:41:12.424Z,534.46
2022-12-31T09:42:12.384Z,545.88
2022-12-31T09:43:12.366Z,561.09
2022-12-31T09:44:12.357Z,593.16
2022-12-31T09:45:12.357Z,570.73
2022-12-31T09:46:12.349Z,555.46
2022-12-31T09:47:12.328Z,521.87
2022-12-31T09:48:12.307Z,527.25
2022-12-31T09:49:12.293Z,542.76
2022-12-31T09:50:12.283Z,545.88
2022-12-31T09:51:12.257Z,571.72
2022-12-31T09:52:12.240Z,586.35
2022-12-31T09:53:12.246Z,594.75
2022-12-31T09:54:12.229Z,593.69
2022-12-31T09:55:12.200Z,624.96
2022-12-31T09:56:12.199Z,630.30
2022-12-31T09:57:12.178Z,631.50
2022-12-31T09:58:12.178Z,593.16
2022-12-31T09:59:12.153Z,622.62
2022-12-31T10:00:12.146Z,636.95
2022-12-31T10:01:12.250Z,648.77
2022-12-31T10:02:12.405Z,661.03
2022-12-31T10:03:12.131Z,636.95
2022-12-31T10:04:12.092Z,603.39
2022-12-31T10:05:12.078Z,622.04
2022-12-31T10:06:12.074Z,632.70
2022-12-31T10:07:12.052Z,606.15
2022-12-31T10:08:12.036Z,611.16
2022-12-31T10:09:12.030Z,575.18
2022-12-31T10:10:12.033Z,596.89
2022-12-31T10:11:11.988Z,628.51
2022-12-31T10:12:11.988Z,634.51
2022-12-31T10:13:11.964Z,638.17
2022-12-31T10:14:11.958Z,633.91
2022-12-31T10:15:11.933Z,630.90
2022-12-31T10:16:11.948Z,646.87
2022-12-31T10:17:11.952Z,653.87
2022-12-31T10:18:11.910Z,623.79
2022-12-31T10:19:11.893Z,606.70
2022-12-31T10:20:11.881Z,577.68
2022-12-31T10:21:11.877Z,613.42
2022-12-31T10:22:11.861Z,613.42
2022-12-31T10:23:11.838Z,571.22
2022-12-31T10:24:11.837Z,588.95
2022-12-31T10:25:11.810Z,555.00
2022-12-31T10:26:11.807Z,546.33
2022-12-31T10:27:11.785Z,616.84
2022-12-31T10:28:11.776Z,611.73
2022-12-31T10:29:11.755Z,578.69
2022-12-31T10:30:11.762Z,610.60
2022-12-31T10:31:11.826Z,580.71
2022-12-31T10:32:11.731Z,623.20
2022-12-31T10:33:11.724Z,664.34
2022-12-31T10:34:11.698Z,673.09
2022-12-31T10:35:11.674Z,633.91
2022-12-31T10:36:11.664Z,601.21
2022-12-31T10:37:11.656Z,561.57
2022-12-31T10:38:11.641Z,587.39
2022-12-31T10:39:16.348Z,563.47
2022-12-31T10:40:11.637Z,567.32
2022-12-31T10:41:11.610Z,531.04
2022-12-31T10:42:11.598Z,456.59
2022-12-31T10:43:11.571Z,399.72
2022-12-31T10:44:11.559Z,330.62
2022-12-31T10:45:11.550Z,364.95
2022-12-31T10:46:11.609Z,427.50
2022-12-31T10:47:11.522Z,435.06
2022-12-31T10:48:11.532Z,413.92
2022-12-31T10:49:11.496Z,376.73
2022-12-31T10:50:11.483Z,422.07
2022-12-31T10:51:11.499Z,462.63
2022-12-31T10:52:11.495Z,403.61
2022-12-31T10:53:11.440Z,430.83
2022-12-31T10:54:11.436Z,382.24
2022-12-31T10:55:11.420Z,408.32
2022-12-31T10:56:11.402Z,433.07
2022-12-31T10:57:11.391Z,398.76
2022-12-31T10:58:11.393Z,412.89
2022-12-31T10:59:11.373Z,451.93
2022-12-31T11:00:11.359Z,420.73
2022-12-31T11:01:11.472Z,457.53
2022-12-31T11:02:11.604Z,472.84
2022-12-31T11:03:11.362Z,417.03
2022-12-31T11:04:11.299Z,375.43
2022-12-31T11:05:11.302Z,296.98
2022-12-31T11:06:11.277Z,316.84
2022-12-31T11:07:11.301Z,315.31
2022-12-31T11:08:11.244Z,347.12
2022-12-31T11:09:11.227Z,350.85
2022-12-31T11:10:11.218Z,375.43
2022-12-31T11:11:11.209Z,372.86
2022-12-31T11:12:11.196Z,392.40
2022-12-31T11:13:11.188Z,403.36
2022-12-31T11:14:11.183Z,405.08
2022-12-31T11:15:11.166Z,414.69
2022-12-31T11:16:11.316Z,366.59
2022-12-31T11:17:11.136Z,343.48
2022-12-31T11:18:11.134Z,369.91
2022-12-31T11:19:11.103Z,332.30
2022-12-31T11:20:11.099Z,345.29
2022-12-31T11:21:11.095Z,298.61
2022-12-31T11:22:11.058Z,320.57
2022-12-31T11:23:11.044Z,298.61
2022-12-31T11:24:11.043Z,324.07
2022-12-31T11:25:11.019Z,371.17
2022-12-31T11:26:11.022Z,391.02
2022-12-31T11:27:11.002Z,431.11
2022-12-31T11:28:10.980Z,423.41
2022-12-31T11:29:10.967Z,423.14
2022-12-31T11:30:10.967Z,427.23
2022-12-31T11:31:11.039Z,389.18
2022-12-31T11:32:10.944Z,347.49
2022-12-31T11:33:10.921Z,328.63
2022-12-31T11:34:10.915Z,288.59
2022-12-31T11:35:10.900Z,316.54
2022-12-31T11:36:10.885Z,347.12
2022-12-31T11:37:10.893Z,324.07
2022-12-31T11:38:10.878Z,345.29
2022-12-31T11:39:10.845Z,370.75
2022-12-31T11:40:10.827Z,322.47
2022-12-31T11:41:10.819Z,267.13
2022-12-31T11:42:11.118Z,302.76
2022-12-31T11:43:10.796Z,315.92
2022-12-31T11:44:10.782Z,346.39
2022-12-31T11:45:10.885Z,405.33
2022-12-31T11:46:11.045Z,401.17
2022-12-31T11:47:11.601Z,364.95
2022-12-31T11:49:10.761Z,401.41
2022-12-31T11:50:10.707Z,440.25
2022-12-31T11:51:10.696Z,426.13
2022-12-31T11:52:10.677Z,470.49
2022-12-31T11:53:10.668Z,488.12
2022-12-31T11:54:10.659Z,449.48
2022-12-31T11:55:10.642Z,476.57
2022-12-31T11:56:10.633Z,508.68
2022-12-31T11:57:10.603Z,541.43
2022-12-31T11:58:10.592Z,501.39
2022-12-31T11:59:15.739Z,465.55
2022-12-31T12:00:10.579Z,496.89
2022-12-31T12:01:10.667Z,505.58
2022-12-31T12:02:10.541Z,489.56
2022-12-31T12:03:10.629Z,485.98
2022-12-31T12:04:10.588Z,442.30
2022-12-31T12:05:11.365Z,496.51
2022-12-31T12:06:10.512Z,492.10
2022-12-31T12:07:10.478Z,505.20
2022-12-31T12:08:10.463Z,479.66
2022-12-31T12:09:10.481Z,494.67
2022-12-31T12:10:10.465Z,575.18
2022-12-31T12:11:10.445Z,606.70
2022-12-31T12:12:10.424Z,550.40
2022-12-31T12:13:10.391Z,556.86
2022-12-31T12:14:10.387Z,643.74
2022-12-31T12:15:10.371Z,646.87
2022-12-31T12:16:10.401Z,548.58
2022-12-31T12:17:10.350Z,531.04
2022-12-31T12:18:10.340Z,516.59
2022-12-31T12:19:10.340Z,508.68
2022-12-31T12:20:10.302Z,470.16
2022-12-31T12:21:10.325Z,492.46
2022-12-31T12:22:10.306Z,363.33
2022-12-31T12:23:10.267Z,425.58
2022-12-31T12:24:10.277Z,451.01
2022-12-31T12:25:10.282Z,389.41
2022-12-31T12:26:10.241Z,436.49
2022-12-31T12:27:10.213Z,501.39
2022-12-31T12:28:10.211Z,521.87
2022-12-31T12:29:10.218Z,541.43
2022-12-31T12:30:10.187Z,584.29